Fairview, MT (59221)

3:53 PM MDT on July 29, 2014 (GMT -0600)
Fairview, Montana (KMTFAIRV4) Elev 1939 ft | 47.86 °N, 104.05 °W | Change Station

Current weather conditions updated 3 minutes ago

Partly Cloudy
Partly Cloudy
83.7 °F
Feels Like 82 °F
N
7.0
Wind Variable Wind from NNE

Today is forecast to be nearly the same temperature as yesterday.

Today
High -- | Low -- °F
--% Chance of Precip.
Yesterday
High -- | Low -- °F
Precip. -- in
5:29 AM 8:35 PM
Waxing Crescent, 8% visible
Pressure 30.16 in
Visibility 10.0 miles
Clouds Few 8000 ft
Heat Index 82 °F
Dew Point 54 °F
Humidity 36%
Rainfall 0.00 in
Snow Depth Not available.
UV 7 out of 12
Pollen 6.80 out of 12
Air Quality Not available.
Flu Activity Not available.
METAR KSDY 292135Z AUTO 04011KT 10SM FEW080 29/12 A3016 RMK AO1

More Conditions Fewer Conditions

Pressure 30.16 in
Visibility 10.0 miles
Clouds Few 8000 ft
Heat Index 82 °F
Dew Point 54 °F
Humidity 36%
Rainfall 0.00 in
Snow Depth Not available.
UV 7 out of 12
Pollen 6.80 out of 12
Air Quality Not available.
Flu Activity Not available.
METAR KSDY 292135Z AUTO 04011KT 10SM FEW080 29/12 A3016 RMK AO1

More Conditions Fewer Conditions

10-Day Weather Forecast

Almanac

Astronomy

Jul. 29, 2014 Rise Set
Actual Time 5:29 AM MDT 8:35 PM MDT
Civil Twilight 4:52 AM MDT 9:12 PM MDT
Nautical Twilight 4:04 AM MDT 9:59 PM MDT
Astronomical Twilight 3:05 AM MDT 10:58 PM MDT
Moon 8:23 AM MDT 9:31 PM MDT
Length of Visible Light 16h 19m
Length of Day
15h 06m
Tomorrow will be 2m 35s shorter.
Waxing Crescent, 8% of the Moon is Illuminated
Today
Waxing Crescent
Aug 3
First Quarter
Aug 10
Full
Aug 17
Last Quarter
Aug 25
New

Today's Extremes

State Highs State Lows

Community

WunderPhotos

Upload Photos

1,738,878 photos uploaded!

Nearby

Snow Depth

Station Depth Elevation
Crystal Lake 0 in 6050 ft
Spur Park 0 in 8100 ft
Porcupine 1 in 6500 ft
White Mill 1 in 8700 ft
Northeast Entrance 0 in 7350 ft

Earthquake Activity

City Distance Mag. Time & Date
No recent earthquake activity has been reported nearby.
Minimum magnitude displayed is 2.5.

Coastal Water Temperatures

Place Temperature
No Stations Reporting

Nearby Weather Stations

Station Location Temp. Heat Index Dew Point Humidity Wind Precip. Elev Updated Type
Fairview, Montana, Fairview, Mt 83.7 °F 82 °F 54 °F 36% NNE  at  7.0 mph - / hr 1939 ft 3:50 PM MDT Normal
Sidney, MT 87.1 °F 86 °F 57 °F 36% ESE  at  1.0 mph - / hr 1995 ft 3:46 PM MDT Normal
Bison pasture GRASS, Alexander, ND 82.0 °F 81 °F 55 °F 39% NE  at  4.0 mph - / hr 2260 ft 3:50 PM MDT Normal

Show More Stations Show Fewer Stations